createdAt,value
2023-02-16T00:00:20.670Z,19.16
2023-02-16T00:02:48.806Z,19.19
2023-02-16T00:05:25.898Z,19.06
2023-02-16T00:08:02.638Z,19.23
2023-02-16T00:10:33.260Z,19.04
2023-02-16T00:13:20.660Z,19.01
2023-02-16T00:15:48.931Z,18.87
2023-02-16T00:18:19.589Z,19.23
2023-02-16T00:20:49.513Z,19.45
2023-02-16T00:23:18.303Z,19.39
2023-02-16T00:25:47.951Z,18.67
2023-02-16T00:28:19.381Z,18.66
2023-02-16T00:30:47.632Z,18.67
2023-02-16T00:33:18.065Z,18.48
2023-02-16T00:35:46.365Z,18.44
2023-02-16T00:38:17.012Z,18.56
2023-02-16T00:40:45.204Z,19.04
2023-02-16T00:43:26.379Z,19.11
2023-02-16T00:45:54.959Z,19.16
2023-02-16T00:48:23.815Z,18.96
2023-02-16T00:50:54.765Z,18.99
2023-02-16T00:53:24.964Z,19.04
2023-02-16T00:55:53.064Z,19.11
2023-02-16T00:58:24.705Z,19.30
2023-02-16T01:00:54.682Z,19.19
2023-02-16T01:03:24.379Z,18.99
2023-02-16T01:06:12.716Z,19.00
2023-02-16T01:09:01.760Z,19.02
2023-02-16T01:11:29.892Z,19.10
2023-02-16T01:13:58.942Z,19.35
2023-02-16T01:16:35.077Z,19.28
2023-02-16T01:19:03.720Z,19.08
2023-02-16T01:21:32.108Z,18.78
2023-02-16T01:24:02.636Z,18.49
2023-02-16T01:26:31.336Z,18.58
2023-02-16T01:29:01.438Z,18.74
2023-02-16T01:31:30.128Z,18.93
2023-02-16T01:33:58.406Z,19.05
2023-02-16T01:36:38.826Z,19.12
2023-02-16T01:39:08.434Z,18.91
2023-02-16T01:42:14.541Z,18.57
2023-02-16T01:44:53.242Z,17.80
2023-02-16T01:47:30.756Z,17.59
2023-02-16T01:50:01.351Z,17.44
2023-02-16T01:52:39.371Z,16.96
2023-02-16T01:55:31.726Z,16.85
2023-02-16T01:58:07.481Z,16.85
2023-02-16T02:00:56.959Z,17.53
2023-02-16T02:03:58.000Z,17.75
2023-02-16T02:06:33.151Z,17.77
2023-02-16T02:09:19.477Z,17.14
2023-02-16T02:12:04.015Z,17.23
2023-02-16T02:14:35.748Z,17.26
2023-02-16T02:17:10.055Z,16.93
2023-02-16T02:22:58.300Z,13.12
2023-02-16T02:25:59.683Z,15.30
2023-02-16T02:28:44.866Z,15.66
2023-02-16T02:31:53.468Z,15.87
2023-02-16T02:34:39.436Z,16.41
2023-02-16T02:37:08.522Z,17.25
2023-02-16T02:40:06.583Z,17.31
2023-02-16T02:42:41.464Z,17.32
2023-02-16T02:45:15.010Z,17.13
2023-02-16T02:47:44.304Z,17.22
2023-02-16T02:51:07.474Z,17.39
2023-02-16T02:53:38.764Z,17.16
2023-02-16T02:56:39.033Z,17.07
2023-02-16T02:59:25.365Z,17.05
2023-02-16T03:01:54.601Z,17.02
2023-02-16T03:04:23.269Z,17.54
2023-02-16T03:06:51.286Z,17.74
2023-02-16T03:09:20.151Z,17.60
2023-02-16T03:12:05.829Z,17.41
2023-02-16T03:14:42.774Z,17.30
2023-02-16T03:17:34.154Z,16.91
2023-02-16T03:20:23.113Z,16.91
2023-02-16T03:23:08.425Z,17.10
2023-02-16T03:25:55.158Z,16.93
2023-02-16T03:28:42.791Z,16.21
2023-02-16T03:31:11.081Z,16.27
2023-02-16T03:33:37.799Z,16.44
2023-02-16T03:36:05.507Z,16.57
2023-02-16T03:38:32.079Z,16.61
2023-02-16T03:40:58.964Z,16.64
2023-02-16T03:43:26.321Z,16.53
2023-02-16T03:45:52.920Z,16.39
2023-02-16T03:48:19.902Z,16.40
2023-02-16T03:50:46.892Z,16.56
2023-02-16T03:53:13.673Z,16.42
2023-02-16T03:55:45.913Z,16.49
2023-02-16T03:58:15.183Z,17.04
2023-02-16T04:00:41.830Z,17.29
2023-02-16T04:03:09.072Z,17.49
2023-02-16T04:05:36.270Z,17.70
2023-02-16T04:08:04.875Z,17.54
2023-02-16T04:10:31.661Z,17.45
2023-02-16T04:12:58.732Z,17.62
2023-02-16T04:15:28.700Z,17.69
2023-02-16T04:17:58.337Z,17.93
2023-02-16T04:20:30.473Z,17.66
2023-02-16T04:22:58.701Z,17.08
2023-02-16T04:25:25.368Z,16.89
2023-02-16T04:27:54.665Z,16.90
2023-02-16T04:30:23.844Z,17.12
2023-02-16T04:32:50.658Z,16.87
2023-02-16T04:35:17.541Z,16.40
2023-02-16T04:37:44.325Z,16.39
2023-02-16T04:40:15.653Z,16.44
2023-02-16T04:42:42.705Z,16.53
2023-02-16T04:45:10.232Z,16.74
2023-02-16T04:47:37.093Z,16.39
2023-02-16T04:50:04.458Z,16.05
2023-02-16T04:52:31.634Z,15.92
2023-02-16T04:54:58.891Z,15.94
2023-02-16T04:57:25.748Z,16.04
2023-02-16T04:59:52.462Z,16.11
2023-02-16T05:02:19.173Z,16.01
2023-02-16T05:04:48.195Z,15.98
2023-02-16T05:07:15.024Z,16.19
2023-02-16T05:09:42.776Z,16.21
2023-02-16T05:12:28.866Z,16.21
2023-02-16T05:14:55.439Z,16.37
2023-02-16T05:17:23.804Z,16.44
2023-02-16T05:19:57.685Z,16.37
2023-02-16T05:22:24.504Z,16.33
2023-02-16T05:24:51.292Z,16.43
2023-02-16T05:27:23.151Z,16.34
2023-02-16T05:29:50.291Z,16.32
2023-02-16T05:32:17.175Z,16.22
2023-02-16T05:34:44.959Z,16.37
2023-02-16T05:37:12.984Z,15.81
2023-02-16T05:39:41.454Z,15.93
2023-02-16T05:42:08.470Z,15.76
2023-02-16T05:44:36.370Z,15.78
2023-02-16T05:47:03.187Z,15.91
2023-02-16T05:49:31.307Z,15.71
2023-02-16T05:51:58.017Z,15.72
2023-02-16T05:54:24.876Z,15.94
2023-02-16T05:56:52.320Z,15.92
2023-02-16T05:59:19.763Z,15.73
2023-02-16T06:01:50.608Z,15.52
2023-02-16T06:04:17.975Z,15.51
2023-02-16T06:06:44.801Z,15.46
2023-02-16T06:09:11.770Z,15.39
2023-02-16T06:11:38.809Z,15.54
2023-02-16T06:14:13.544Z,15.60
2023-02-16T06:16:42.440Z,16.28
2023-02-16T06:19:10.645Z,16.77
2023-02-16T06:21:39.392Z,16.85
2023-02-16T06:24:07.062Z,16.86
2023-02-16T06:26:34.394Z,17.16
2023-02-16T06:29:01.116Z,16.84
2023-02-16T06:31:28.200Z,16.96
2023-02-16T06:33:56.260Z,17.35
2023-02-16T06:36:24.448Z,17.53
2023-02-16T06:38:51.584Z,17.54
2023-02-16T06:41:30.552Z,17.89
2023-02-16T06:44:01.468Z,17.68
2023-02-16T06:46:28.644Z,17.71
2023-02-16T06:48:55.743Z,17.74
2023-02-16T06:51:22.684Z,17.87
2023-02-16T06:53:49.427Z,17.89
2023-02-16T06:56:16.377Z,17.74
2023-02-16T06:58:43.858Z,17.97
2023-02-16T07:01:11.698Z,18.19
2023-02-16T07:03:38.456Z,18.06
2023-02-16T07:06:05.733Z,17.82
2023-02-16T07:08:35.855Z,17.78
2023-02-16T07:11:03.095Z,17.71
2023-02-16T07:13:30.452Z,17.74
2023-02-16T07:15:58.931Z,17.66
2023-02-16T07:18:28.475Z,17.82
2023-02-16T07:20:56.636Z,17.95
2023-02-16T07:23:23.413Z,17.81
2023-02-16T07:25:50.473Z,17.89
2023-02-16T07:28:18.229Z,18.03
2023-02-16T07:30:45.246Z,17.96
2023-02-16T07:33:12.655Z,18.24
2023-02-16T07:35:40.406Z,18.35
2023-02-16T07:38:08.012Z,18.04
2023-02-16T07:40:35.936Z,18.03
2023-02-16T07:43:06.959Z,17.71
2023-02-16T07:45:34.558Z,17.71
2023-02-16T07:48:01.483Z,17.88
2023-02-16T07:50:28.650Z,17.82
2023-02-16T07:52:55.255Z,17.62
2023-02-16T07:55:22.142Z,17.40
2023-02-16T07:57:53.973Z,17.65
2023-02-16T08:00:21.931Z,17.49
2023-02-16T08:02:48.926Z,17.51
2023-02-16T08:05:15.732Z,17.81
2023-02-16T08:07:42.830Z,17.90
2023-02-16T08:10:10.338Z,17.92
2023-02-16T08:12:36.895Z,18.04
2023-02-16T08:15:04.320Z,18.08
2023-02-16T08:17:34.191Z,18.25
2023-02-16T08:20:01.486Z,18.45
2023-02-16T08:22:28.739Z,18.41
2023-02-16T08:24:56.256Z,18.61
2023-02-16T08:27:24.366Z,18.72
2023-02-16T08:29:51.427Z,18.41
2023-02-16T08:32:18.973Z,18.53
2023-02-16T08:34:46.825Z,18.16
2023-02-16T08:37:13.641Z,18.17
2023-02-16T08:39:40.937Z,17.90
2023-02-16T08:42:10.686Z,18.06
2023-02-16T08:44:37.414Z,18.06
2023-02-16T08:47:04.756Z,18.21
2023-02-16T08:49:33.136Z,18.23
2023-02-16T08:52:00.984Z,18.27
2023-02-16T08:54:29.728Z,18.18
2023-02-16T08:56:58.346Z,18.02
2023-02-16T08:59:28.002Z,18.13
2023-02-16T09:01:57.494Z,18.14
2023-02-16T09:04:25.044Z,18.12
2023-02-16T09:06:52.719Z,18.46
2023-02-16T09:09:20.254Z,18.75
2023-02-16T09:11:47.307Z,18.79
2023-02-16T09:14:16.795Z,18.76
2023-02-16T09:16:47.298Z,18.84
2023-02-16T09:19:19.107Z,19.01
2023-02-16T09:21:46.306Z,19.09
2023-02-16T09:24:15.344Z,19.04
2023-02-16T09:26:42.390Z,18.84
2023-02-16T09:29:12.522Z,19.08
2023-02-16T09:31:40.335Z,18.79
2023-02-16T09:34:08.237Z,18.78
2023-02-16T09:36:35.362Z,18.68
2023-02-16T09:39:02.013Z,18.66
2023-02-16T09:41:31.971Z,19.11
2023-02-16T09:44:21.195Z,19.21
2023-02-16T09:46:49.192Z,18.90
2023-02-16T09:49:26.246Z,18.98
2023-02-16T09:52:04.266Z,20.00
2023-02-16T09:54:43.279Z,19.64
2023-02-16T09:57:41.358Z,19.60
2023-02-16T10:00:30.008Z,19.09
2023-02-16T10:03:00.362Z,19.04
2023-02-16T10:05:45.502Z,19.66
2023-02-16T10:08:18.043Z,19.69
2023-02-16T10:11:32.588Z,19.48
2023-02-16T10:14:07.574Z,19.00
2023-02-16T10:16:41.294Z,19.69
2023-02-16T10:19:17.648Z,19.62
2023-02-16T10:21:44.520Z,19.89
2023-02-16T10:24:11.175Z,20.28
2023-02-16T10:26:42.711Z,20.19
2023-02-16T10:29:20.473Z,20.35
2023-02-16T10:31:59.342Z,20.26
2023-02-16T10:34:49.077Z,20.56
2023-02-16T10:37:49.564Z,19.95
2023-02-16T10:40:26.849Z,19.31
2023-02-16T10:43:23.746Z,19.84
2023-02-16T10:45:58.906Z,19.62
2023-02-16T10:48:25.735Z,19.56
2023-02-16T10:51:10.401Z,19.34
2023-02-16T10:53:55.582Z,19.63
2023-02-16T10:56:51.834Z,19.62
2023-02-16T10:59:38.019Z,19.25
2023-02-16T11:02:38.591Z,19.18
2023-02-16T11:05:28.851Z,18.96
2023-02-16T11:07:56.533Z,18.99
2023-02-16T11:10:57.049Z,20.06
2023-02-16T11:13:31.148Z,20.25
2023-02-16T11:16:01.065Z,20.46
2023-02-16T11:18:33.439Z,20.21
2023-02-16T11:21:00.878Z,20.48
2023-02-16T11:23:34.435Z,20.72
2023-02-16T11:26:02.375Z,20.30
2023-02-16T11:28:37.277Z,19.50
2023-02-16T11:31:13.554Z,19.91
2023-02-16T11:33:41.159Z,20.00
2023-02-16T11:36:19.531Z,19.86
2023-02-16T11:39:06.488Z,19.05
2023-02-16T11:41:33.386Z,19.52
2023-02-16T11:44:01.375Z,20.01
2023-02-16T11:46:29.805Z,19.29
2023-02-16T11:48:56.773Z,19.45
2023-02-16T11:51:32.197Z,19.51
2023-02-16T11:54:01.204Z,20.05
2023-02-16T11:56:29.992Z,19.88
2023-02-16T11:59:18.462Z,20.19
2023-02-16T12:01:48.257Z,19.01
2023-02-16T12:04:26.899Z,19.24
2023-02-16T12:07:07.971Z,19.57
2023-02-16T12:09:41.368Z,19.23
2023-02-16T12:12:17.916Z,19.22
2023-02-16T12:15:13.772Z,19.79
2023-02-16T12:17:47.583Z,19.62
2023-02-16T12:20:19.009Z,19.87
2023-02-16T12:22:47.680Z,19.58
2023-02-16T12:26:01.475Z,19.85
2023-02-16T12:28:36.690Z,20.28
2023-02-16T12:31:16.687Z,20.20
2023-02-16T12:34:08.445Z,19.87
2023-02-16T12:36:40.299Z,19.87
2023-02-16T12:39:29.353Z,19.64
2023-02-16T12:42:18.039Z,19.25
2023-02-16T12:44:50.127Z,19.36
2023-02-16T12:47:20.783Z,19.37
2023-02-16T12:49:55.985Z,19.78
2023-02-16T12:52:37.102Z,19.82
2023-02-16T12:55:07.546Z,19.27
2023-02-16T12:57:35.840Z,19.50
2023-02-16T13:00:13.897Z,19.59
2023-02-16T13:02:43.960Z,19.77
2023-02-16T13:05:14.286Z,19.88
2023-02-16T13:07:46.686Z,19.71
2023-02-16T13:10:24.141Z,19.73
2023-02-16T13:12:58.570Z,19.61
2023-02-16T13:15:47.070Z,19.70
2023-02-16T13:18:21.558Z,19.55
2023-02-16T13:21:15.257Z,19.84
2023-02-16T13:24:00.766Z,20.05
2023-02-16T13:27:19.204Z,19.62
2023-02-16T13:30:05.309Z,19.90
2023-02-16T13:32:51.571Z,19.98
2023-02-16T13:35:37.323Z,19.78
2023-02-16T13:38:31.840Z,19.92
2023-02-16T13:41:06.025Z,20.86
2023-02-16T13:43:39.986Z,21.16
2023-02-16T13:46:12.356Z,20.59
2023-02-16T13:48:45.739Z,20.51
2023-02-16T13:51:15.222Z,20.39
2023-02-16T13:53:42.481Z,20.21
2023-02-16T13:56:36.656Z,20.16
2023-02-16T13:59:16.411Z,19.66
2023-02-16T14:01:43.977Z,19.64
2023-02-16T14:04:13.230Z,19.70
2023-02-16T14:06:42.327Z,19.72
2023-02-16T14:09:12.261Z,19.62
2023-02-16T14:11:58.769Z,19.21
2023-02-16T14:14:53.735Z,19.22
2023-02-16T14:17:23.379Z,19.54
2023-02-16T14:19:59.172Z,19.35
2023-02-16T14:22:31.419Z,19.57
2023-02-16T14:25:00.074Z,19.66
2023-02-16T14:27:55.845Z,19.43
2023-02-16T14:30:49.135Z,19.41
2023-02-16T14:33:19.623Z,19.74
2023-02-16T14:39:02.806Z,15.85
2023-02-16T14:41:35.453Z,17.91
2023-02-16T14:44:06.649Z,17.94
2023-02-16T14:46:45.671Z,18.19
2023-02-16T14:49:38.354Z,18.49
2023-02-16T14:52:24.101Z,18.50
2023-02-16T14:55:32.640Z,18.11
2023-02-16T14:58:13.586Z,18.56
2023-02-16T15:01:21.476Z,18.93
2023-02-16T15:03:54.639Z,18.82
2023-02-16T15:06:32.624Z,18.78
2023-02-16T15:09:03.877Z,18.47
2023-02-16T15:11:34.542Z,18.39
2023-02-16T15:14:09.950Z,18.86
2023-02-16T15:16:42.068Z,19.43
2023-02-16T15:19:18.041Z,19.07
2023-02-16T15:21:46.242Z,19.06
2023-02-16T15:24:22.392Z,18.82
2023-02-16T15:26:56.284Z,19.09
2023-02-16T15:29:29.402Z,19.28
2023-02-16T15:31:58.749Z,19.71
2023-02-16T15:34:35.775Z,19.86
2023-02-16T15:37:22.350Z,20.08
2023-02-16T15:40:12.158Z,19.86
2023-02-16T15:42:39.847Z,19.46
2023-02-16T15:45:30.032Z,19.64
2023-02-16T15:48:32.603Z,19.54
2023-02-16T15:51:25.276Z,19.33
2023-02-16T15:54:03.850Z,19.04
2023-02-16T15:56:57.238Z,19.54
2023-02-16T15:59:38.607Z,19.73
2023-02-16T16:02:40.972Z,19.69
2023-02-16T16:05:20.970Z,20.47
2023-02-16T16:07:51.154Z,19.90
2023-02-16T16:10:27.219Z,19.91
2023-02-16T16:13:02.237Z,20.39
2023-02-16T16:15:30.349Z,20.18
2023-02-16T16:18:06.182Z,19.84
2023-02-16T16:20:44.588Z,19.89
2023-02-16T16:23:15.833Z,19.44
2023-02-16T16:25:45.459Z,19.06
2023-02-16T16:28:32.362Z,19.06
2023-02-16T16:31:18.231Z,18.98
2023-02-16T16:33:53.740Z,19.18
2023-02-16T16:36:33.236Z,19.02
2023-02-16T16:39:13.733Z,18.55
2023-02-16T16:41:42.001Z,19.16
2023-02-16T16:44:26.734Z,19.22
2023-02-16T16:46:54.949Z,19.06
2023-02-16T16:49:23.216Z,19.23
2023-02-16T16:51:52.234Z,19.59
2023-02-16T16:54:32.019Z,19.82
2023-02-16T16:57:00.233Z,19.66
2023-02-16T16:59:28.207Z,19.26
2023-02-16T17:01:56.875Z,19.26
2023-02-16T17:04:26.750Z,19.35
2023-02-16T17:06:56.068Z,19.49
2023-02-16T17:09:24.235Z,19.28
2023-02-16T17:11:52.585Z,19.01
2023-02-16T17:14:20.902Z,18.86
2023-02-16T17:16:53.227Z,18.54
2023-02-16T17:19:22.380Z,18.78
2023-02-16T17:21:51.374Z,18.60
2023-02-16T17:24:20.757Z,18.91
2023-02-16T17:26:50.238Z,18.46
2023-02-16T17:29:18.940Z,18.77
2023-02-16T17:31:49.487Z,18.54
2023-02-16T17:34:18.638Z,18.43
2023-02-16T17:36:46.776Z,18.09
2023-02-16T17:39:16.076Z,17.88
2023-02-16T17:41:45.132Z,17.91
2023-02-16T17:44:13.418Z,18.34
2023-02-16T17:46:42.084Z,17.79
2023-02-16T17:49:11.592Z,18.47
2023-02-16T17:51:40.663Z,18.73
2023-02-16T17:54:11.839Z,18.75
2023-02-16T17:56:41.990Z,18.96
2023-02-16T17:59:14.072Z,18.69
2023-02-16T18:01:43.948Z,18.85
2023-02-16T18:04:13.684Z,18.87
2023-02-16T18:06:42.225Z,19.15
2023-02-16T18:09:15.778Z,19.38
2023-02-16T18:11:44.410Z,19.01
2023-02-16T18:14:14.267Z,18.71
2023-02-16T18:16:43.945Z,19.02
2023-02-16T18:19:14.372Z,19.15
2023-02-16T18:21:45.502Z,19.24
2023-02-16T18:24:13.722Z,18.64
2023-02-16T18:26:42.017Z,19.01
2023-02-16T18:29:10.902Z,18.96
2023-02-16T18:31:42.334Z,18.81
2023-02-16T18:34:11.401Z,18.92
2023-02-16T18:36:40.832Z,19.32
2023-02-16T18:39:09.280Z,18.78
2023-02-16T18:41:37.636Z,18.68
2023-02-16T18:44:06.144Z,18.55
2023-02-16T18:46:34.588Z,19.14
2023-02-16T18:49:03.730Z,18.95
2023-02-16T18:51:33.993Z,19.27
2023-02-16T18:54:04.995Z,19.38
2023-02-16T18:56:35.705Z,19.35
2023-02-16T18:59:08.531Z,19.37
2023-02-16T19:01:37.558Z,19.32
2023-02-16T19:04:08.377Z,19.35
2023-02-16T19:06:38.975Z,19.48
2023-02-16T19:09:11.046Z,19.67
2023-02-16T19:11:42.109Z,19.16
2023-02-16T19:14:11.821Z,18.70
2023-02-16T19:16:42.727Z,18.16
2023-02-16T19:19:11.469Z,18.18
2023-02-16T19:21:42.650Z,18.60
2023-02-16T19:24:11.357Z,18.53
2023-02-16T19:26:40.144Z,17.85
2023-02-16T19:29:08.618Z,18.32
2023-02-16T19:31:37.550Z,18.49
2023-02-16T19:34:06.188Z,18.21
2023-02-16T19:36:35.069Z,18.08
2023-02-16T19:39:03.447Z,18.16
2023-02-16T19:41:36.637Z,18.73
2023-02-16T19:44:05.420Z,18.58
2023-02-16T19:46:34.787Z,18.44
2023-02-16T19:49:02.867Z,18.65
2023-02-16T19:51:31.458Z,18.85
2023-02-16T19:54:00.084Z,18.84
2023-02-16T19:56:29.868Z,18.64
2023-02-16T19:59:02.248Z,18.77
2023-02-16T20:01:31.194Z,18.26
2023-02-16T20:04:00.344Z,17.83
2023-02-16T20:06:33.648Z,16.77
2023-02-16T20:09:02.148Z,17.13
2023-02-16T20:11:31.104Z,18.03
2023-02-16T20:13:59.554Z,17.94
2023-02-16T20:16:28.450Z,17.96
2023-02-16T20:18:57.001Z,18.00
2023-02-16T20:21:26.763Z,17.82
2023-02-16T20:23:57.904Z,17.43
2023-02-16T20:26:28.963Z,17.55
2023-02-16T20:28:57.637Z,17.65
2023-02-16T20:31:27.525Z,17.30
2023-02-16T20:33:55.933Z,17.63
2023-02-16T20:36:24.002Z,17.58
2023-02-16T20:38:52.077Z,16.60
2023-02-16T20:41:20.543Z,16.63
2023-02-16T20:43:49.344Z,17.04
2023-02-16T20:46:17.853Z,17.45
2023-02-16T20:48:50.072Z,16.85
2023-02-16T20:51:18.487Z,16.64
2023-02-16T20:53:46.517Z,16.78
2023-02-16T20:56:16.254Z,16.75
2023-02-16T20:58:50.773Z,16.33
2023-02-16T21:01:24.890Z,17.00
2023-02-16T21:03:56.436Z,16.69
2023-02-16T21:06:24.881Z,16.19
2023-02-16T21:08:53.143Z,17.29
2023-02-16T21:11:21.241Z,17.78
2023-02-16T21:13:51.488Z,17.51
2023-02-16T21:16:23.535Z,17.22
2023-02-16T21:18:51.832Z,17.11
2023-02-16T21:21:20.403Z,16.97
2023-02-16T21:23:50.505Z,16.63
2023-02-16T21:26:19.640Z,16.99
2023-02-16T21:28:47.881Z,17.14
2023-02-16T21:31:19.241Z,17.10
2023-02-16T21:33:49.379Z,17.32
2023-02-16T21:36:19.806Z,17.26
2023-02-16T21:38:48.602Z,17.37
2023-02-16T21:41:25.248Z,17.39
2023-02-16T21:44:09.237Z,17.13
2023-02-16T21:46:46.557Z,16.97
2023-02-16T21:49:16.451Z,16.96
2023-02-16T21:51:47.786Z,17.18
2023-02-16T21:54:18.694Z,17.04
2023-02-16T21:56:51.020Z,17.35
2023-02-16T21:59:22.834Z,17.04
2023-02-16T22:01:51.407Z,17.39
2023-02-16T22:04:22.093Z,17.71
2023-02-16T22:06:51.037Z,17.73
2023-02-16T22:09:21.225Z,17.85
2023-02-16T22:11:49.906Z,17.36
2023-02-16T22:14:18.216Z,17.38
2023-02-16T22:16:47.472Z,17.20
2023-02-16T22:19:17.403Z,16.92
2023-02-16T22:21:46.051Z,17.46
2023-02-16T22:24:16.577Z,17.77
2023-02-16T22:26:45.146Z,17.17
2023-02-16T22:29:13.492Z,16.73
2023-02-16T22:31:46.130Z,16.06
2023-02-16T22:34:16.709Z,16.02
2023-02-16T22:36:45.944Z,16.74
2023-02-16T22:39:15.281Z,16.96
2023-02-16T22:41:43.709Z,17.01
2023-02-16T22:44:12.621Z,16.98
2023-02-16T22:46:40.748Z,17.16
2023-02-16T22:49:09.262Z,17.11
2023-02-16T22:51:38.755Z,16.86
2023-02-16T22:54:06.935Z,16.75
2023-02-16T22:56:35.679Z,16.77
2023-02-16T22:59:04.472Z,16.93
2023-02-16T23:01:32.901Z,16.83
2023-02-16T23:04:01.821Z,16.51
2023-02-16T23:06:32.399Z,16.22
2023-02-16T23:09:08.363Z,16.78
2023-02-16T23:11:36.673Z,16.61
2023-02-16T23:14:05.258Z,16.61
2023-02-16T23:16:33.331Z,16.54
2023-02-16T23:19:01.461Z,16.19
2023-02-16T23:21:31.139Z,16.66
2023-02-16T23:23:59.557Z,17.04
2023-02-16T23:26:29.322Z,17.14
2023-02-16T23:28:59.212Z,16.81
2023-02-16T23:31:36.500Z,16.77
2023-02-16T23:34:04.944Z,17.07
2023-02-16T23:36:34.401Z,16.85
2023-02-16T23:39:07.720Z,16.93
2023-02-16T23:41:36.089Z,17.31
2023-02-16T23:44:04.935Z,16.87
2023-02-16T23:46:33.174Z,17.21
2023-02-16T23:49:01.869Z,17.10
2023-02-16T23:51:30.048Z,16.12
2023-02-16T23:53:58.107Z,16.04
2023-02-16T23:56:27.449Z,16.45
2023-02-16T23:58:59.621Z,16.50
